Time;durP1;ratioP1;P1;durP2;ratioP2;P2;SDS_P1;SDS_P2;PMS_P1;PMS_P2;Temp;Humidity;BMP_temperature;BMP_pressure;BME280_temperature;BME280_humidity;BME280_pressure;Samples;Min_cycle;Max_cycle;Signal;HPM_P1;HPM_P2
2022/04/22 00:01:43;;;;;;;9.50;5.70;;;333.60;2329.60;;;;;;5033334;28;20022;-56
2022/04/22 00:04:09;;;;;;;10.75;5.72;;;333.60;2329.60;;;;;;5033297;28;20030;-54
2022/04/22 00:06:35;;;;;;;12.07;6.00;;;333.60;2329.60;;;;;;5033249;28;20041;-54
2022/04/22 00:09:01;;;;;;;7.35;5.97;;;333.60;2329.60;;;;;;5033454;28;20391;-55
2022/04/22 00:11:29;;;;;;;8.52;5.97;;;333.60;2329.60;;;;;;5033290;28;20388;-56
2022/04/22 00:14:03;;;;;;;6.22;4.35;;;333.60;2329.60;;;;;;5033155;28;20380;-55
2022/04/22 00:16:30;;;;;;;7.88;5.15;;;333.60;2329.60;;;;;;5033247;28;20018;-55
2022/04/22 00:19:00;;;;;;;9.93;4.82;;;333.60;2329.60;;;;;;5032879;28;20119;-55
2022/04/22 00:21:26;;;;;;;9.30;6.32;;;333.60;2329.60;;;;;;5032865;28;20026;-55
2022/04/22 00:23:52;;;;;;;10.75;6.25;;;333.60;2329.60;;;;;;5032992;28;20029;-55
2022/04/22 00:26:19;;;;;;;8.35;5.63;;;333.60;2329.60;;;;;;5032864;28;20026;-54
2022/04/22 00:28:45;;;;;;;10.50;6.13;;;333.70;2329.60;;;;;;5032562;28;20478;-54
2022/04/22 00:31:10;;;;;;;11.23;6.05;;;333.60;2329.60;;;;;;5033046;28;20427;-55
2022/04/22 00:33:37;;;;;;;9.77;5.53;;;333.60;2329.60;;;;;;5032613;28;20076;-55
2022/04/22 00:36:03;;;;;;;8.32;5.28;;;333.60;2329.60;;;;;;5032599;28;20053;-55
2022/04/22 00:38:29;;;;;;;11.63;5.60;;;333.60;2329.60;;;;;;5032774;28;20026;-56
2022/04/22 00:40:56;;;;;;;9.68;5.85;;;333.60;2329.60;;;;;;5032506;28;20491;-55
2022/04/22 00:43:25;;;;;;;9.40;5.65;;;333.50;2329.60;;;;;;5032424;28;20030;-56
2022/04/22 00:45:52;;;;;;;18.13;9.27;;;333.50;2329.60;;;;;;5032771;28;20030;-55
2022/04/22 00:48:20;;;;;;;37.85;17.60;;;333.40;2329.60;;;;;;5032648;28;20036;-55
2022/04/22 00:50:46;;;;;;;20.50;12.50;;;333.40;2329.60;;;;;;5032381;28;20029;-56
2022/04/22 00:53:13;;;;;;;19.63;9.88;;;333.50;2329.60;;;;;;5032375;28;20075;-55
2022/04/22 00:55:45;;;;;;;19.45;10.32;;;333.60;2329.60;;;;;;5032431;28;20021;-55
2022/04/22 00:58:12;;;;;;;13.57;6.88;;;333.60;2329.60;;;;;;5032260;28;20111;-56
2022/04/22 01:00:39;;;;;;;7.53;5.32;;;333.60;2329.60;;;;;;5032385;28;20072;-55
2022/04/22 01:03:08;;;;;;;7.93;4.88;;;333.70;2329.60;;;;;;5031080;28;20057;-55
2022/04/22 01:11:05;;;;;;;9.98;5.35;;;333.50;2329.60;;;;;;5032277;28;20032;-55
2022/04/22 01:13:30;;;;;;;8.07;5.55;;;333.50;2329.60;;;;;;5032082;28;20055;-54
2022/04/22 01:15:56;;;;;;;7.25;5.07;;;333.40;2329.60;;;;;;5031661;28;20112;-55
2022/04/22 01:18:22;;;;;;;8.55;6.18;;;333.40;2329.60;;;;;;5031879;28;20037;-55
2022/04/22 01:20:48;;;;;;;7.65;4.72;;;333.40;2329.60;;;;;;5031856;28;20131;-55
2022/04/22 01:23:14;;;;;;;9.25;4.88;;;333.40;2329.60;;;;;;5031675;28;20043;-55
2022/04/22 01:25:40;;;;;;;7.07;4.80;;;333.50;2329.60;;;;;;5031888;28;20025;-55
2022/04/22 01:28:06;;;;;;;7.13;4.93;;;333.50;2329.60;;;;;;5031634;28;20036;-55
2022/04/22 01:30:32;;;;;;;9.15;5.38;;;333.40;2329.60;;;;;;5031438;28;20034;-55
2022/04/22 01:32:58;;;;;;;8.02;4.47;;;333.40;2329.60;;;;;;5031854;28;20032;-54
2022/04/22 01:35:25;;;;;;;8.40;4.18;;;333.50;2329.60;;;;;;5031301;28;20064;-55
2022/04/22 01:37:51;;;;;;;6.20;4.53;;;333.40;2329.60;;;;;;5031586;28;20021;-55
2022/04/22 01:40:18;;;;;;;9.32;5.00;;;333.50;2329.60;;;;;;5031440;28;20494;-55
2022/04/22 01:42:44;;;;;;;8.18;4.93;;;333.50;2329.60;;;;;;5031515;28;20057;-55
2022/04/22 01:45:14;;;;;;;8.95;4.57;;;333.40;2329.60;;;;;;5031558;28;20025;-55
2022/04/22 01:47:40;;;;;;;8.38;4.93;;;333.50;2329.60;;;;;;5031435;28;20445;-55
2022/04/22 01:50:07;;;;;;;7.40;4.40;;;333.40;2329.60;;;;;;5031199;28;20099;-55
2022/04/22 01:52:35;;;;;;;8.68;4.90;;;333.40;2329.60;;;;;;5031299;28;20420;-55
2022/04/22 01:55:02;;;;;;;8.43;4.88;;;333.20;2329.60;;;;;;5031397;28;20033;-56
2022/04/22 01:57:28;;;;;;;6.93;4.35;;;333.20;2329.60;;;;;;5031457;28;20025;-55
2022/04/22 01:59:55;;;;;;;8.40;5.38;;;333.20;2329.60;;;;;;5030845;28;20036;-55
2022/04/22 02:02:21;;;;;;;8.77;5.57;;;333.10;2329.60;;;;;;5031199;28;20021;-55
2022/04/22 02:04:47;;;;;;;6.53;4.28;;;333.30;2329.60;;;;;;5031224;28;20041;-55
2022/04/22 02:07:13;;;;;;;8.68;4.35;;;333.30;2329.60;;;;;;5030786;28;20029;-54
2022/04/22 02:09:39;;;;;;;8.07;5.15;;;333.30;2329.60;;;;;;5031224;28;20353;-55
2022/04/22 02:12:06;;;;;;;6.03;4.95;;;333.20;2329.60;;;;;;5030791;28;20025;-55
2022/04/22 02:14:33;;;;;;;9.82;5.90;;;333.30;2329.60;;;;;;5030341;28;20377;-55
2022/04/22 02:16:59;;;;;;;8.55;5.18;;;333.10;2329.60;;;;;;5030747;28;20036;-55
2022/04/22 02:19:25;;;;;;;9.70;6.50;;;333.10;2329.60;;;;;;5030474;28;20176;-55
2022/04/22 02:21:51;;;;;;;9.23;5.78;;;333.10;2329.60;;;;;;5030633;28;20097;-56
2022/04/22 02:24:17;;;;;;;16.25;7.60;;;333.30;2329.60;;;;;;5030909;28;20039;-55
2022/04/22 02:29:28;;;;;;;12.65;7.68;;;333.40;2329.60;;;;;;5030569;28;20120;-55
2022/04/22 02:31:53;;;;;;;10.07;7.20;;;333.40;2329.60;;;;;;5030491;28;20380;-54
2022/04/22 02:34:23;;;;;;;15.82;8.40;;;333.40;2329.60;;;;;;5030343;28;20049;-54
2022/04/22 02:36:50;;;;;;;9.05;6.35;;;333.40;2329.60;;;;;;5030544;28;20112;-55
2022/04/22 02:39:17;;;;;;;8.43;5.80;;;333.50;2329.60;;;;;;5030486;28;20033;-55
2022/04/22 02:47:12;;;;;;;11.35;6.10;;;333.40;2329.60;;;;;;5030501;28;20496;-56
2022/04/22 02:49:38;;;;;;;9.13;6.18;;;333.40;2329.60;;;;;;5030319;28;20029;-55
2022/04/22 02:52:05;;;;;;;11.30;5.93;;;333.40;2329.60;;;;;;5030241;28;20026;-55
2022/04/22 02:54:31;;;;;;;9.02;6.25;;;333.30;2329.60;;;;;;5030571;28;20029;-55
2022/04/22 02:56:57;;;;;;;10.43;6.15;;;333.30;2329.60;;;;;;5030396;28;20422;-55
2022/04/22 02:59:24;;;;;;;11.75;6.38;;;333.30;2329.60;;;;;;5030041;28;20037;-55
2022/04/22 03:01:49;;;;;;;11.05;6.47;;;333.30;2329.60;;;;;;5030287;28;20026;-54
2022/04/22 03:04:16;;;;;;;12.27;6.32;;;333.40;2329.60;;;;;;5029924;28;20502;-54
2022/04/22 03:06:42;;;;;;;10.60;6.20;;;333.40;2329.60;;;;;;5030181;28;20022;-55
2022/04/22 03:09:07;;;;;;;10.75;6.45;;;333.20;2329.60;;;;;;5030225;28;20434;-55
2022/04/22 03:11:34;;;;;;;10.07;6.80;;;333.30;2329.60;;;;;;5029864;28;20026;-55
2022/04/22 03:14:05;;;;;;;9.55;6.82;;;333.20;2329.60;;;;;;5030074;28;20056;-55
2022/04/22 03:16:31;;;;;;;8.88;7.03;;;333.20;2329.60;;;;;;5030179;28;20028;-54
2022/04/22 03:18:57;;;;;;;14.13;7.25;;;333.30;2329.60;;;;;;5030034;28;20080;-55
2022/04/22 03:21:23;;;;;;;9.85;5.70;;;333.10;2329.60;;;;;;5029955;28;20033;-55
2022/04/22 03:23:49;;;;;;;13.50;7.13;;;333.20;2329.60;;;;;;5030187;28;20064;-55
2022/04/22 03:26:15;;;;;;;14.00;7.28;;;333.30;2329.60;;;;;;5029924;28;20030;-55
2022/04/22 03:28:41;;;;;;;14.82;8.48;;;333.30;2329.60;;;;;;5033867;28;20026;-55
2022/04/22 03:31:06;;;;;;;24.23;8.88;;;333.30;2329.60;;;;;;5033805;28;20037;-55
2022/04/22 03:33:32;;;;;;;13.60;6.60;;;333.20;2329.60;;;;;;5033641;28;20052;-55
2022/04/22 03:35:58;;;;;;;26.67;15.88;;;333.20;2329.60;;;;;;5033812;28;20104;-55
2022/04/22 03:38:24;;;;;;;15.68;9.60;;;333.10;2329.60;;;;;;5033826;28;20486;-55
2022/04/22 03:40:51;;;;;;;13.15;7.65;;;333.10;2329.60;;;;;;5033977;28;20025;-55
2022/04/22 03:43:19;;;;;;;11.73;6.93;;;333.10;2329.60;;;;;;5033682;28;20022;-55
2022/04/22 03:45:45;;;;;;;12.25;6.65;;;333.10;2329.60;;;;;;5033079;28;20534;-54
2022/04/22 03:48:13;;;;;;;17.20;8.60;;;333.20;2329.60;;;;;;5033677;28;20033;-55
2022/04/22 03:50:39;;;;;;;11.35;8.40;;;333.20;2329.60;;;;;;5033811;28;20029;-54
2022/04/22 03:53:06;;;;;;;13.88;9.00;;;333.10;2329.60;;;;;;5033600;28;20049;-54
2022/04/22 03:55:32;;;;;;;12.55;7.53;;;333.00;2329.60;;;;;;5033585;28;20037;-56
2022/04/22 03:58:11;;;;;;;11.10;7.95;;;333.10;2329.60;;;;;;5033410;28;20053;-55
2022/04/22 04:00:45;;;;;;;11.20;7.18;;;333.10;2329.60;;;;;;5033249;28;20037;-55
2022/04/22 04:03:14;;;;;;;10.88;6.65;;;333.10;2329.60;;;;;;5033330;28;20373;-54
2022/04/22 04:05:45;;;;;;;11.65;7.47;;;333.00;2329.60;;;;;;5033580;28;20060;-53
2022/04/22 04:08:11;;;;;;;10.10;6.82;;;332.90;2329.60;;;;;;5033541;28;20032;-55
2022/04/22 04:16:06;;;;;;;10.00;7.13;;;332.80;2329.60;;;;;;5033154;28;20107;-55
2022/04/22 04:18:34;;;;;;;16.88;8.85;;;332.80;2329.60;;;;;;5033155;28;20468;-55
2022/04/22 04:23:46;;;;;;;7.88;6.65;;;332.90;2329.60;;;;;;5033050;28;20506;-55
2022/04/22 04:26:13;;;;;;;11.30;6.35;;;332.80;2329.60;;;;;;5033200;28;20052;-55
2022/04/22 04:28:39;;;;;;;12.02;6.68;;;332.90;2329.60;;;;;;5032824;28;20056;-55
2022/04/22 04:31:11;;;;;;;8.82;6.78;;;332.90;2329.60;;;;;;5032819;28;20449;-55
2022/04/22 04:33:37;;;;;;;13.07;11.13;;;333.00;2329.60;;;;;;5032632;28;20044;-55
2022/04/22 04:36:04;;;;;;;10.68;8.90;;;333.10;2329.60;;;;;;5032521;28;20144;-55
2022/04/22 04:38:30;;;;;;;13.68;8.05;;;333.20;2329.60;;;;;;5032557;28;20033;-56
2022/04/22 04:40:56;;;;;;;13.63;7.93;;;333.20;2329.60;;;;;;5032477;28;20039;-56
2022/04/22 04:43:22;;;;;;;10.43;7.03;;;333.00;2329.60;;;;;;5032762;28;20392;-55
2022/04/22 04:45:50;;;;;;;13.35;9.43;;;333.10;2329.60;;;;;;5032168;28;20075;-53
2022/04/22 04:48:16;;;;;;;16.05;10.52;;;333.20;2329.60;;;;;;5031029;28;20518;-56
2022/04/22 04:50:43;;;;;;;19.35;12.70;;;333.60;2329.60;;;;;;5031397;28;20044;-55
2022/04/22 04:53:11;;;;;;;21.00;13.20;;;358.50;2329.60;;;;;;5031651;28;20117;-56
2022/04/22 04:55:37;;;;;;;12.18;8.90;;;358.70;2329.60;;;;;;5031861;28;20392;-56
2022/04/22 04:58:03;;;;;;;13.18;6.65;;;358.80;2329.60;;;;;;5032158;28;20021;-56
2022/04/22 05:00:29;;;;;;;12.75;8.70;;;358.90;2329.60;;;;;;5032146;28;20433;-56
2022/04/22 05:02:57;;;;;;;10.55;7.22;;;359.10;2329.60;;;;;;5031936;28;20033;-56
2022/04/22 05:05:23;;;;;;;10.70;7.00;;;384.10;2329.60;;;;;;5032293;28;20029;-56
2022/04/22 05:08:00;;;;;;;13.50;8.95;;;409.80;2355.20;;;;;;5032291;28;20048;-55
2022/04/22 05:10:28;;;;;;;13.27;8.45;;;410.30;2355.20;;;;;;5032095;28;20103;-55
2022/04/22 05:12:54;;;;;;;17.52;9.80;;;435.20;2355.20;;;;;;5031999;28;20034;-55
2022/04/22 05:15:24;;;;;;;12.98;9.23;;;435.50;2355.20;;;;;;5032027;28;20021;-55
2022/04/22 05:17:51;;;;;;;15.57;9.82;;;435.90;2355.20;;;;;;5032154;28;20109;-55
2022/04/22 05:20:25;;;;;;;25.55;17.02;;;461.20;2380.80;;;;;;5031833;28;20049;-56
2022/04/22 05:22:51;;;;;;;31.80;20.42;;;461.70;2380.80;;;;;;5032035;28;20026;-55
2022/04/22 05:25:18;;;;;;;23.25;15.45;;;487.10;2380.80;;;;;;5031857;28;20026;-56
2022/04/22 05:27:44;;;;;;;20.92;12.82;;;512.10;2201.60;;;;;;5031632;28;20083;-55
2022/04/22 05:32:55;;;;;;;17.20;12.10;;;512.80;2022.40;;;;;;5031732;28;20037;-56
2022/04/22 05:35:26;;;;;;;19.10;12.32;;;563.60;1945.60;;;;;;5031331;28;20396;-56
2022/04/22 05:37:57;;;;;;;21.40;14.48;;;588.80;1843.20;;;;;;5031799;28;20037;-56
2022/04/22 05:40:28;;;;;;;20.50;14.60;;;564.10;1817.60;;;;;;5031698;28;20060;-56
2022/04/22 05:42:55;;;;;;;22.75;14.70;;;563.60;1868.80;;;;;;5031484;28;20375;-56
2022/04/22 05:45:22;;;;;;;17.38;13.30;;;564.10;1792.00;;;;;;5031386;28;20113;-55
2022/04/22 05:47:48;;;;;;;21.15;14.40;;;563.90;1817.60;;;;;;5031625;28;20456;-56
2022/04/22 05:50:16;;;;;;;19.55;12.80;;;563.90;1792.00;;;;;;5030791;28;20037;-56
2022/04/22 05:52:42;;;;;;;16.77;11.20;;;537.90;1868.80;;;;;;5031478;28;20084;-55
2022/04/22 05:55:16;;;;;;;18.58;12.23;;;563.20;1894.40;;;;;;5031326;28;20463;-56
2022/04/22 05:57:42;;;;;;;13.73;10.55;;;563.60;1817.60;;;;;;5031474;28;20108;-55
2022/04/22 06:00:12;;;;;;;15.52;11.50;;;538.40;1868.80;;;;;;5031038;28;20037;-55
2022/04/22 06:02:38;;;;;;;15.90;10.90;;;589.20;1740.80;;;;;;5030870;28;20065;-54
2022/04/22 06:05:04;;;;;;;18.08;11.60;;;615.30;1612.80;;;;;;5031025;28;20030;-55
2022/04/22 06:07:30;;;;;;;18.33;12.48;;;640.90;1510.40;;;;;;5031427;28;20067;-57
2022/04/22 06:12:40;;;;;;;15.73;10.15;;;666.20;1484.80;;;;;;5031354;28;20024;-56
2022/04/22 06:15:06;;;;;;;11.57;8.85;;;665.60;1459.20;;;;;;5030783;28;20033;-56
2022/04/22 06:17:32;;;;;;;14.02;10.43;;;665.70;1459.20;;;;;;5030961;28;20017;-56
2022/04/22 06:19:58;;;;;;;18.05;13.00;;;640.60;1459.20;;;;;;5030769;28;20106;-56
2022/04/22 06:22:28;;;;;;;14.82;11.48;;;666.30;1459.20;;;;;;5030587;28;20067;-57
2022/04/22 06:24:55;;;;;;;16.23;12.18;;;691.70;1382.40;;;;;;5030146;28;20468;-57
2022/04/22 06:27:28;;;;;;;13.45;10.40;;;717.10;1356.80;;;;;;5030834;28;20025;-56
2022/04/22 06:29:55;;;;;;;11.02;8.60;;;717.20;1331.20;;;;;;5030364;28;20071;-57
2022/04/22 06:32:27;;;;;;;14.35;10.02;;;717.70;1280.00;;;;;;5030602;28;20030;-56
2022/04/22 06:34:53;;;;;;;11.88;8.23;;;768.00;1254.40;;;;;;5030269;28;20400;-56
2022/04/22 06:37:19;;;;;;;10.38;7.28;;;768.50;1228.80;;;;;;5030806;28;20365;-57
2022/04/22 06:48:00;;;;;;;12.57;9.45;;;794.50;1152.00;;;;;;5030689;28;20427;-56
2022/04/22 06:50:26;;;;;;;6.88;6.05;;;768.10;1177.60;;;;;;5030249;28;20021;-56
2022/04/22 06:52:52;;;;;;;114.10;61.58;;;768.90;1126.40;;;;;;5030363;28;20025;-57
2022/04/22 06:55:18;;;;;;;14.13;12.57;;;819.60;1126.40;;;;;;5030279;28;20461;-57
2022/04/22 06:57:51;;;;;;;9.70;8.60;;;845.40;1049.60;;;;;;5030200;28;20540;-57
2022/04/22 07:00:20;;;;;;;7.38;5.55;;;845.10;1075.20;;;;;;5030496;28;20073;-57
2022/04/22 07:02:46;;;;;;;40.63;23.58;;;819.70;1075.20;;;;;;5029994;28;20037;-57
2022/04/22 07:05:13;;;;;;;11.00;8.68;;;845.10;1075.20;;;;;;5030103;28;20033;-58
2022/04/22 07:07:39;;;;;;;10.25;6.53;;;845.70;1049.60;;;;;;5030124;28;20032;-56
2022/04/22 07:10:05;;;;;;;7.65;6.93;;;819.60;1100.80;;;;;;5029851;28;20057;-57
2022/04/22 07:12:32;;;;;;;9.52;7.03;;;845.40;1049.60;;;;;;5030361;28;20032;-56
2022/04/22 07:15:06;;;;;;;6.00;5.50;;;819.60;1075.20;;;;;;5030183;28;20026;-57
2022/04/22 07:17:36;;;;;;;6.85;6.07;;;819.80;1049.60;;;;;;5029823;28;20121;-57
2022/04/22 07:20:06;;;;;;;8.75;7.95;;;819.90;1049.60;;;;;;5029798;28;20033;-57
2022/04/22 07:22:32;;;;;;;9.30;8.07;;;845.00;1075.20;;;;;;5029770;28;20076;-57
2022/04/22 07:24:58;;;;;;;5.78;5.28;;;870.40;1075.20;;;;;;5030239;28;20033;-57
2022/04/22 07:27:30;;;;;;;7.05;5.97;;;870.50;1024.00;;;;;;5029922;28;20030;-57
2022/04/22 07:29:58;;;;;;;6.00;5.35;;;844.90;1049.60;;;;;;5029664;28;20570;-57
2022/04/22 07:32:25;;;;;;;7.82;7.03;;;871.10;998.40;;;;;;5029623;28;20025;-57
2022/04/22 07:34:51;;;;;;;7.10;6.43;;;921.60;998.40;;;;;;5029843;28;20050;-56
2022/04/22 07:37:18;;;;;;;17.70;13.52;;;896.10;947.20;;;;;;5027153;28;20026;-57
2022/04/22 07:39:44;;;;;;;6.43;5.68;;;896.10;998.40;;;;;;5028461;28;20072;-57
2022/04/22 07:42:18;;;;;;;5.07;4.57;;;871.20;921.60;;;;;;5028245;28;20113;-56
2022/04/22 07:47:35;;;;;;;6.55;5.80;;;870.60;972.80;;;;;;5028313;28;20478;-56
2022/04/22 07:50:05;;;;;;;11.75;9.35;;;870.70;947.20;;;;;;5027946;28;20034;-56
2022/04/22 07:52:32;;;;;;;7.85;7.15;;;871.00;921.60;;;;;;5028226;28;20357;-56
2022/04/22 07:54:58;;;;;;;6.40;5.80;;;870.80;947.20;;;;;;5028320;28;20052;-57
2022/04/22 07:57:24;;;;;;;31.65;23.67;;;896.00;921.60;;;;;;5028152;28;20468;-55
2022/04/22 07:59:50;;;;;;;46.05;32.67;;;871.20;947.20;;;;;;5027616;28;20427;-57
2022/04/22 08:02:16;;;;;;;15.88;13.95;;;896.50;947.20;;;;;;5027219;28;20036;-56
2022/04/22 08:04:43;;;;;;;11.65;10.30;;;896.50;921.60;;;;;;5027764;28;20399;-57
2022/04/22 08:07:09;;;;;;;16.40;14.65;;;896.80;921.60;;;;;;5028209;28;20424;-57
2022/04/22 08:09:35;;;;;;;10.15;9.15;;;896.40;896.00;;;;;;5028031;28;20033;-56
2022/04/22 08:12:01;;;;;;;46.97;35.92;;;871.30;921.60;;;;;;5028091;28;20369;-56
2022/04/22 08:14:28;;;;;;;15.27;13.27;;;871.20;921.60;;;;;;5033361;28;20399;-56
2022/04/22 08:16:55;;;;;;;6.22;5.63;;;871.10;947.20;;;;;;5033078;28;20025;-58
2022/04/22 08:19:21;;;;;;;7.43;6.28;;;896.10;947.20;;;;;;5033447;28;20033;-57
2022/04/22 08:21:46;;;;;;;11.00;5.65;;;870.70;998.40;;;;;;5032938;28;20499;-58
2022/04/22 08:24:12;;;;;;;6.90;6.30;;;870.50;998.40;;;;;;5033004;28;20026;-58
2022/04/22 08:26:39;;;;;;;5.95;5.00;;;870.90;998.40;;;;;;5032914;28;20099;-60
2022/04/22 08:29:05;;;;;;;8.70;5.30;;;845.20;1024.00;;;;;;5032802;28;20022;-67
2022/04/22 08:31:31;;;;;;;5.53;5.03;;;845.20;1024.00;;;;;;5032796;28;20022;-60
2022/04/22 08:33:57;;;;;;;6.10;5.50;;;820.10;1024.00;;;;;;5032463;28;20079;-63
2022/04/22 08:36:32;;;;;;;22.20;15.35;;;819.20;1075.20;;;;;;5032707;28;20508;-59
2022/04/22 08:38:58;;;;;;;22.38;16.25;;;794.00;1126.40;;;;;;5032935;28;20064;-60
2022/04/22 08:41:24;;;;;;;5.53;5.03;;;743.00;1177.60;;;;;;5032669;28;20058;-59
2022/04/22 08:43:51;;;;;;;6.18;5.53;;;742.40;1177.60;;;;;;5032937;28;20357;-60
2022/04/22 08:51:49;;;;;;;6.13;4.30;;;640.70;1280.00;;;;;;5031344;28;20091;-59
2022/04/22 08:54:16;;;;;;;5.32;4.60;;;666.00;1280.00;;;;;;5031633;28;20025;-63
2022/04/22 08:56:44;;;;;;;8.30;5.05;;;666.40;1280.00;;;;;;5032300;28;20076;-61
2022/04/22 08:59:10;;;;;;;5.43;4.30;;;665.70;1280.00;;;;;;5032242;28;20037;-57
2022/04/22 09:01:38;;;;;;;6.38;4.60;;;640.80;1305.60;;;;;;5031891;28;20556;-58
2022/04/22 09:04:04;;;;;;;3.97;3.45;;;640.20;1331.20;;;;;;5032105;28;20057;-57
2022/04/22 09:06:31;;;;;;;5.32;3.10;;;640.60;1305.60;;;;;;5032414;28;20038;-63
2022/04/22 09:08:58;;;;;;;3.88;2.63;;;640.40;1305.60;;;;;;5032151;28;20053;-61
2022/04/22 09:11:24;;;;;;;8.48;3.40;;;640.20;1331.20;;;;;;5032034;28;20033;-57
2022/04/22 09:13:50;;;;;;;4.50;3.20;;;640.40;1331.20;;;;;;5032471;28;20030;-63
2022/04/22 09:16:22;;;;;;;6.38;4.57;;;640.50;1331.20;;;;;;5031851;28;20472;-64
2022/04/22 09:18:57;;;;;;;4.10;3.47;;;640.90;1305.60;;;;;;5032012;28;20052;-61
2022/04/22 09:21:24;;;;;;;6.07;3.83;;;640.00;1331.20;;;;;;5031920;28;20045;-63
2022/04/22 09:23:50;;;;;;;30.27;14.70;;;640.40;1331.20;;;;;;5031595;28;20025;-62
2022/04/22 09:26:30;;;;;;;6.07;4.45;;;640.20;1331.20;;;;;;5031156;28;20026;-58
2022/04/22 09:29:00;;;;;;;4.97;2.67;;;640.10;1356.80;;;;;;5031891;28;20033;-63
2022/04/22 09:31:27;;;;;;;4.63;3.28;;;615.10;1356.80;;;;;;5031592;28;20029;-65
2022/04/22 09:33:54;;;;;;;8.35;3.70;;;614.50;1408.00;;;;;;5030439;28;20029;-62
2022/04/22 09:44:56;;;;;;;3.58;2.53;;;614.80;1382.40;;;;;;5031314;28;20040;-63
2022/04/22 09:47:27;;;;;;;4.60;3.08;;;589.60;1433.60;;;;;;5031622;28;20431;-56
2022/04/22 09:49:53;;;;;;;4.65;2.90;;;589.70;1433.60;;;;;;5031541;28;20041;-58
2022/04/22 09:52:34;;;;;;;6.18;3.47;;;614.80;1382.40;;;;;;5031573;28;20491;-59
2022/04/22 09:55:08;;;;;;;4.57;3.13;;;614.70;1408.00;;;;;;5031160;28;20033;-59
2022/04/22 09:57:54;;;;;;;5.68;3.70;;;614.40;1408.00;;;;;;5030905;28;20085;-62
2022/04/22 10:00:24;;;;;;;3.88;2.55;;;614.40;1433.60;;;;;;5031650;28;20036;-61
2022/04/22 10:02:51;;;;;;;6.75;5.07;;;589.70;1433.60;;;;;;5031328;28;20029;-58
2022/04/22 10:05:20;;;;;;;6.05;3.45;;;589.70;1433.60;;;;;;5030798;28;20480;-64
2022/04/22 10:07:52;;;;;;;5.90;3.20;;;589.70;1459.20;;;;;;5030777;28;20025;-58
2022/04/22 10:10:22;;;;;;;4.50;2.92;;;614.60;1433.60;;;;;;5030980;28;20075;-62
2022/04/22 10:12:49;;;;;;;3.40;2.50;;;614.50;1433.60;;;;;;5030938;28;20472;-62
2022/04/22 10:15:19;;;;;;;5.60;2.95;;;614.50;1433.60;;;;;;5030831;28;20052;-62
2022/04/22 10:17:47;;;;;;;4.43;3.20;;;614.40;1408.00;;;;;;5030699;28;20040;-57
2022/04/22 10:20:13;;;;;;;5.68;3.47;;;614.80;1408.00;;;;;;5030733;28;20038;-57
2022/04/22 10:22:39;;;;;;;3.63;2.83;;;614.80;1433.60;;;;;;5030879;28;20136;-55
2022/04/22 10:25:07;;;;;;;6.05;2.83;;;615.00;1408.00;;;;;;5030632;28;20040;-57
2022/04/22 10:27:37;;;;;;;5.40;2.78;;;614.90;1408.00;;;;;;5030570;28;20076;-60
2022/04/22 10:30:05;;;;;;;8.13;4.40;;;615.00;1408.00;;;;;;5028217;28;20028;-62
2022/04/22 10:32:33;;;;;;;5.22;3.63;;;615.20;1382.40;;;;;;5029142;28;20033;-58
2022/04/22 10:35:01;;;;;;;8.32;3.92;;;615.20;1356.80;;;;;;5028705;28;20123;-63
2022/04/22 10:37:28;;;;;;;5.93;3.90;;;615.20;1331.20;;;;;;5028794;28;20069;-57
2022/04/22 10:39:56;;;;;;;7.45;4.38;;;615.30;1356.80;;;;;;5028698;28;20052;-59
2022/04/22 10:42:34;;;;;;;4.95;3.22;;;640.10;1356.80;;;;;;5028633;28;20025;-60
2022/04/22 10:47:47;;;;;;;5.30;3.85;;;615.20;1382.40;;;;;;5028084;28;20055;-57
2022/04/22 10:50:30;;;;;;;6.00;4.22;;;615.00;1382.40;;;;;;5028050;28;20582;-60
2022/04/22 10:53:03;;;;;;;5.55;3.83;;;615.00;1382.40;;;;;;5028661;28;20037;-63
2022/04/22 10:55:30;;;;;;;;;;;614.80;1382.40;;;;;;5028754;28;20537;-64
2022/04/22 10:58:14;;;;;;;10.13;3.63;;;615.00;1382.40;;;;;;5028742;28;19939;-62
2022/04/22 11:00:44;;;;;;;7.28;5.22;;;615.30;1433.60;;;;;;5028302;28;20044;-61
2022/04/22 11:03:12;;;;;;;8.85;5.20;;;615.30;1408.00;;;;;;5028595;28;20510;-62
2022/04/22 11:05:43;;;;;;;8.77;5.28;;;615.20;1408.00;;;;;;5028914;28;20084;-63
2022/04/22 11:08:26;;;;;;;6.80;4.03;;;615.20;1382.40;;;;;;5028119;28;20060;-61
2022/04/22 11:10:52;;;;;;;6.40;3.78;;;615.00;1382.40;;;;;;5028491;28;20030;-63
2022/04/22 11:13:39;;;;;;;10.70;5.88;;;615.20;1408.00;;;;;;5028439;28;20096;-61
2022/04/22 11:16:20;;;;;;;11.18;4.82;;;615.30;1382.40;;;;;;5028388;28;20140;-65
2022/04/22 11:19:08;;;;;;;5.55;3.90;;;615.30;1382.40;;;;;;5028319;28;20029;-63
2022/04/22 11:21:36;;;;;;;7.82;4.35;;;615.20;1382.40;;;;;;5027879;28;20029;-63
2022/04/22 11:24:09;;;;;;;7.00;3.88;;;640.00;1382.40;;;;;;5029408;28;20021;-63
2022/04/22 11:26:35;;;;;;;;;;;615.10;1408.00;;;;;;5030774;28;20064;-64
2022/04/22 11:29:07;;;;;;;6.43;3.70;;;615.20;1408.00;;;;;;5030154;28;19905;-63
2022/04/22 11:31:35;;;;;;;3.90;2.83;;;615.00;1433.60;;;;;;5029639;28;20021;-64
2022/04/22 11:34:11;;;;;;;5.50;3.85;;;615.20;1382.40;;;;;;5029664;28;20026;-65
2022/04/22 11:36:45;;;;;;;4.75;2.97;;;615.10;1408.00;;;;;;5029706;28;20034;-65
2022/04/22 11:39:17;;;;;;;5.40;3.40;;;615.00;1408.00;;;;;;5029994;28;20033;-65
2022/04/22 11:41:58;;;;;;;4.40;3.08;;;615.00;1382.40;;;;;;5029845;28;20033;-64
2022/04/22 11:44:25;;;;;;;4.10;2.60;;;615.20;1459.20;;;;;;5029705;28;20108;-57
2022/04/22 11:46:51;;;;;;;6.35;3.95;;;614.90;1408.00;;;;;;5029763;28;20026;-64
2022/04/22 11:49:18;;;;;;;6.45;3.50;;;614.80;1408.00;;;;;;5033286;28;20075;-62
2022/04/22 11:51:44;;;;;;;4.28;3.00;;;615.00;1408.00;;;;;;5033561;28;20049;-60
2022/04/22 11:54:10;;;;;;;4.25;3.05;;;614.80;1408.00;;;;;;5033578;28;20029;-63
2022/04/22 11:56:35;;;;;;;7.25;4.45;;;614.90;1382.40;;;;;;5033514;28;20483;-63
2022/04/22 11:59:02;;;;;;;5.90;3.55;;;615.10;1382.40;;;;;;5033560;28;20029;-64
2022/04/22 12:08:00;;;;;;;7.82;3.47;;;640.40;1331.20;;;;;;5033064;28;20499;-64
2022/04/22 12:10:01;;;;;;;4.45;2.95;;;640.60;1331.20;;;;;;5033147;28;20050;-65
2022/04/22 12:12:31;;;;;;;5.40;3.90;;;640.60;1356.80;;;;;;5033351;28;20022;-62
2022/04/22 12:15:04;;;;;;;8.60;3.15;;;640.20;1356.80;;;;;;5033258;28;20088;-64
2022/04/22 12:17:31;;;;;;;5.60;3.00;;;640.10;1356.80;;;;;;5031612;28;20033;-63
2022/04/22 12:19:57;;;;;;;5.80;3.25;;;640.10;1356.80;;;;;;5032297;28;20049;-64
2022/04/22 12:22:24;;;;;;;4.97;3.75;;;640.20;1356.80;;;;;;5032861;28;20372;-62
2022/04/22 12:25:09;;;;;;;4.68;3.08;;;640.40;1356.80;;;;;;5033219;28;20056;-64
2022/04/22 12:27:35;;;;;;;4.18;2.83;;;640.70;1331.20;;;;;;5032788;28;20032;-64
2022/04/22 12:30:03;;;;;;;4.03;2.70;;;665.70;1356.80;;;;;;5032925;28;20056;-65
2022/04/22 12:32:29;;;;;;;5.53;3.00;;;665.60;1356.80;;;;;;5032602;28;20028;-62
2022/04/22 12:35:13;;;;;;;3.47;2.75;;;665.60;1356.80;;;;;;5032685;28;20053;-61
2022/04/22 12:37:52;;;;;;;6.03;3.83;;;640.40;1331.20;;;;;;5030856;28;20117;-62
2022/04/22 12:40:19;;;;;;;4.57;3.58;;;640.50;1331.20;;;;;;5031150;28;20037;-62
2022/04/22 12:42:45;;;;;;;5.38;3.50;;;640.60;1356.80;;;;;;5031096;28;20025;-60
2022/04/22 12:53:34;;;;;;;;;;;640.70;1331.20;;;;;;5031534;28;20040;-61
2022/04/22 12:56:05;;;;;;;5.35;3.55;;;665.60;1331.20;;;;;;5030827;28;19905;-66
2022/04/22 12:58:32;;;;;;;3.83;3.00;;;640.60;1331.20;;;;;;5030727;28;20029;-62
2022/04/22 13:00:59;;;;;;;4.93;3.47;;;640.50;1331.20;;;;;;5030939;28;20033;-62
2022/04/22 13:03:37;;;;;;;5.25;3.35;;;640.40;1331.20;;;;;;5030030;28;20024;-61
2022/04/22 13:06:03;;;;;;;5.18;2.65;;;640.50;1331.20;;;;;;5030215;28;20033;-61
2022/04/22 13:08:29;;;;;;;3.70;2.25;;;640.60;1356.80;;;;;;5030820;28;20104;-63
2022/04/22 13:10:58;;;;;;;4.05;2.40;;;640.60;1331.20;;;;;;5030306;28;20417;-62
2022/04/22 13:13:23;;;;;;;5.15;2.38;;;640.70;1331.20;;;;;;5030483;28;20027;-61
2022/04/22 13:15:49;;;;;;;3.85;3.17;;;640.70;1280.00;;;;;;5030241;28;20372;-62
2022/04/22 13:18:18;;;;;;;3.75;2.78;;;640.60;1280.00;;;;;;5030320;28;20104;-63
2022/04/22 13:20:44;;;;;;;5.75;3.05;;;640.70;1305.60;;;;;;5030264;28;20150;-62
2022/04/22 13:23:09;;;;;;;6.95;3.28;;;640.60;1305.60;;;;;;5030398;28;20523;-60
2022/04/22 13:25:35;;;;;;;4.70;2.90;;;640.60;1356.80;;;;;;5030065;28;20038;-60
2022/04/22 13:28:02;;;;;;;4.55;3.15;;;640.60;1331.20;;;;;;5030380;28;20824;-55